LRG weather

Loralai Airport
Loralai, Balochistan, Pakistan

Public forecast

Using degrees Celsius for public forecast. Weather courtesy of forecast.io.

METAR (pilot weather report)

Closest report is Multan International Airport, 145.8 nm (269.9 km) E. Retrieved 2019/04/21 08:30 UTC (0 seconds ago):

OPMT 210830Z 18006KT 7000 HZ NSC 36/13 Q1005 NOSIG

TAF (pilot weather forecast)

Closest forecast is Dera Ghazi Khan Airport, 100.0 nm (185.3 km) ESE. Retrieved 2019/04/21 06:00 UTC (2 hours ago):

TAF OPDG 210400Z 2106/2124 05010KT 5000 FU FEW120 TX38/2101Z